Time;durP1;ratioP1;P1;durP2;ratioP2;P2;SDS_P1;SDS_P2;PMS_P1;PMS_P2;Temp;Humidity;BMP_temperature;BMP_pressure;BME280_temperature;BME280_humidity;BME280_pressure;Samples;Min_cycle;Max_cycle;Signal;HPM_P1;HPM_P2
2022/12/06 00:00:35;;;;;;;54.35;17.17;;;;;;;3.91;100.00;101848.66;5136634;27;20042;-82
2022/12/06 00:06:26;;;;;;;45.85;17.80;;;;;;;3.95;100.00;101863.28;5133137;28;20046;-81
2022/12/06 00:08:52;;;;;;;45.20;15.30;;;;;;;3.95;100.00;101865.91;5132903;28;20027;-81
2022/12/06 00:11:20;;;;;;;51.50;17.05;;;;;;;3.90;100.00;101862.88;5133595;28;20039;-80
2022/12/06 00:17:07;;;;;;;52.13;18.08;;;;;;;3.93;100.00;101858.13;5133878;28;20038;-83
2022/12/06 00:19:32;;;;;;;54.42;18.50;;;;;;;3.85;100.00;101846.59;5114484;28;20047;-81
2022/12/06 00:21:57;;;;;;;51.85;17.73;;;;;;;3.92;100.00;101866.22;5114920;28;20233;-82
2022/12/06 00:24:23;;;;;;;54.17;18.60;;;;;;;3.87;100.00;101848.13;5133475;28;20060;-82
2022/12/06 00:30:10;;;;;;;45.88;15.57;;;;;;;3.98;100.00;101855.88;5133342;28;20088;-82
2022/12/06 00:35:59;;;;;;;53.15;19.27;;;;;;;3.97;100.00;101856.84;5133494;28;20132;-82
2022/12/06 00:38:26;;;;;;;46.08;15.73;;;;;;;4.01;100.00;101866.16;5114003;28;20039;-82
2022/12/06 00:41:03;;;;;;;48.33;17.38;;;;;;;4.01;100.00;101860.03;5133301;28;20404;-82
2022/12/06 00:43:30;;;;;;;55.30;16.88;;;;;;;3.93;100.00;101847.53;5114536;27;20042;-81
2022/12/06 00:49:16;;;;;;;51.08;16.17;;;;;;;4.02;100.00;101857.25;5130777;28;20037;-80
2022/12/06 00:51:42;;;;;;;48.58;17.42;;;;;;;3.98;100.00;101847.94;5135826;27;20129;-81
2022/12/06 00:54:10;;;;;;;49.90;17.13;;;;;;;4.00;100.00;101859.19;5132849;28;20174;-80
2022/12/06 00:56:36;;;;;;;44.60;16.23;;;;;;;3.95;100.00;101844.75;5135670;27;20036;-81
2022/12/06 00:59:01;;;;;;;49.63;17.85;;;;;;;3.96;100.00;101851.72;5132743;28;20091;-82
2022/12/06 01:04:48;;;;;;;45.85;16.50;;;;;;;3.97;100.00;101850.72;5132961;27;20399;-81
2022/12/06 01:07:13;;;;;;;52.97;17.50;;;;;;;4.01;100.00;101860.88;5136313;28;20035;-81
2022/12/06 01:09:38;;;;;;;45.47;15.32;;;;;;;3.99;100.00;101862.00;5117192;28;20039;-81
2022/12/06 01:12:04;;;;;;;45.50;16.92;;;;;;;3.98;100.00;101857.69;5117756;28;20038;-81
2022/12/06 01:14:29;;;;;;;51.47;18.88;;;;;;;3.96;100.00;101857.00;5120707;27;20042;-82
2022/12/06 01:16:54;;;;;;;42.15;15.25;;;;;;;3.93;100.00;101847.53;5136692;27;20031;-82
2022/12/06 01:19:20;;;;;;;55.35;15.80;;;;;;;3.94;100.00;101846.56;5117870;28;20019;-83
2022/12/06 01:21:47;;;;;;;47.15;14.48;;;;;;;3.94;100.00;101845.72;5139326;27;20035;-83
2022/12/06 01:24:12;;;;;;;46.58;16.48;;;;;;;3.94;100.00;101849.22;5136348;28;20089;-83
2022/12/06 01:26:37;;;;;;;41.88;15.85;;;;;;;3.97;100.00;101848.91;5117570;28;20463;-80
2022/12/06 01:29:03;;;;;;;46.53;15.00;;;;;;;3.98;100.00;101853.22;5139177;27;20039;-82
2022/12/06 01:31:29;;;;;;;44.05;15.20;;;;;;;4.01;100.00;101852.94;5135933;28;20085;-81
2022/12/06 01:33:54;;;;;;;51.08;17.52;;;;;;;3.98;100.00;101847.09;5139087;27;20185;-82
2022/12/06 01:39:41;;;;;;;52.75;15.77;;;;;;;4.06;100.00;101854.34;5137728;27;20046;-81
2022/12/06 01:42:10;;;;;;;48.88;13.80;;;;;;;4.09;100.00;101864.63;5119057;28;20114;-80
2022/12/06 01:47:57;;;;;;;45.30;13.57;;;;;;;4.11;100.00;101850.25;5134177;28;20117;-79
2022/12/06 01:50:29;;;;;;;46.25;14.13;;;;;;;3.99;100.00;101836.38;5117279;28;20031;-81
2022/12/06 01:53:10;;;;;;;47.58;14.40;;;;;;;4.13;100.00;101852.75;5139037;27;20519;-81
2022/12/06 01:55:37;;;;;;;49.88;14.45;;;;;;;4.09;100.00;101854.88;5135598;28;20424;-82
2022/12/06 02:01:26;;;;;;;42.17;13.65;;;;;;;4.00;100.00;101848.63;5133686;28;20400;-82
2022/12/06 02:07:13;;;;;;;47.15;14.25;;;;;;;3.89;100.00;101843.53;5135973;28;20042;-82
2022/12/06 02:09:40;;;;;;;35.45;12.30;;;;;;;3.96;100.00;101851.72;5136600;27;20351;-81
2022/12/06 02:12:12;;;;;;;39.13;12.13;;;;;;;3.86;100.00;101849.09;5136958;27;20103;-81
2022/12/06 02:18:12;;;;;;;36.50;11.98;;;;;;;3.87;100.00;101855.22;5135345;27;20092;-79
2022/12/06 02:20:45;;;;;;;39.25;11.98;;;;;;;3.90;100.00;101852.28;5116557;28;20076;-79
2022/12/06 02:23:17;;;;;;;42.75;12.38;;;;;;;3.88;100.00;101855.09;5138121;27;20051;-79
2022/12/06 02:25:51;;;;;;;42.35;12.68;;;;;;;3.89;100.00;101855.91;5134933;28;20560;-79
2022/12/06 02:31:45;;;;;;;34.88;11.93;;;;;;;3.88;100.00;101852.44;5135147;27;20054;-81
2022/12/06 02:34:16;;;;;;;37.72;12.05;;;;;;;3.88;100.00;101843.66;5137883;27;20490;-80
2022/12/06 02:37:02;;;;;;;33.83;12.02;;;;;;;3.85;100.00;101838.69;5135031;28;20034;-80
2022/12/06 02:42:57;;;;;;;31.90;10.73;;;;;;;3.85;100.00;101844.81;5135272;27;20046;-81
2022/12/06 02:45:28;;;;;;;44.08;13.00;;;;;;;3.83;100.00;101843.28;5116258;28;20042;-81
2022/12/06 02:47:56;;;;;;;35.22;11.75;;;;;;;3.82;100.00;101837.16;5115991;28;20078;-82
2022/12/06 02:53:48;;;;;;;40.78;12.00;;;;;;;3.82;100.00;101831.03;5135189;27;20091;-79
2022/12/06 02:56:16;;;;;;;40.72;13.35;;;;;;;3.86;100.00;101830.59;5134476;28;20494;-80
2022/12/06 03:02:09;;;;;;;45.45;13.10;;;;;;;3.83;100.00;101830.88;5132929;28;20054;-80
2022/12/06 03:04:45;;;;;;;46.15;14.05;;;;;;;3.85;100.00;101839.50;5101937;28;20035;-80
2022/12/06 03:07:45;;;;;;;46.33;13.05;;;;;;;3.85;100.00;101834.22;5137681;27;20039;-80
2022/12/06 03:10:37;;;;;;;46.33;12.63;;;;;;;3.87;100.00;101837.53;5134371;28;20501;-79
2022/12/06 03:13:02;;;;;;;34.80;12.20;;;;;;;3.89;100.00;101835.59;5137268;27;20054;-80
2022/12/06 03:19:01;;;;;;;42.83;11.73;;;;;;;3.92;100.00;101835.28;5134533;28;20292;-77
2022/12/06 03:24:49;;;;;;;44.63;12.65;;;;;;;3.91;100.00;101832.78;5132542;28;20524;-78
2022/12/06 03:27:18;;;;;;;48.50;13.20;;;;;;;3.86;100.00;101829.75;5134154;28;20068;-79
2022/12/06 03:29:49;;;;;;;42.47;12.02;;;;;;;3.88;100.00;101836.56;5133238;27;20031;-79
2022/12/06 03:32:18;;;;;;;44.80;12.82;;;;;;;3.93;100.00;101846.72;5118340;28;20031;-78
2022/12/06 03:34:48;;;;;;;45.58;14.13;;;;;;;3.92;100.00;101845.88;5115626;28;20056;-78
2022/12/06 03:37:17;;;;;;;48.13;13.63;;;;;;;3.87;100.00;101840.19;5115061;28;20076;-78
2022/12/06 03:39:46;;;;;;;46.33;12.75;;;;;;;3.93;100.00;101846.72;5115401;28;20033;-80
2022/12/06 03:42:11;;;;;;;52.95;15.57;;;;;;;3.85;100.00;101836.88;5134562;27;20096;-80
2022/12/06 03:44:37;;;;;;;45.58;12.90;;;;;;;3.89;100.00;101840.88;5136497;27;20476;-79
2022/12/06 03:47:44;;;;;;;43.58;13.40;;;;;;;3.91;100.00;101844.22;5115457;28;20031;-80
2022/12/06 03:50:18;;;;;;;46.78;15.10;;;;;;;3.87;100.00;101831.44;5136663;27;20177;-80
2022/12/06 03:52:43;;;;;;;46.83;13.70;;;;;;;3.91;100.00;101835.44;5133897;28;20102;-79
2022/12/06 03:55:09;;;;;;;54.47;14.20;;;;;;;3.91;100.00;101833.63;5136946;27;20137;-80
2022/12/06 03:57:34;;;;;;;43.92;13.90;;;;;;;3.92;100.00;101842.41;5133812;28;20098;-83
2022/12/06 04:00:00;;;;;;;58.55;14.85;;;;;;;3.89;100.00;101830.31;5133990;28;20035;-83
2022/12/06 04:02:25;;;;;;;47.70;13.55;;;;;;;3.88;100.00;101830.44;5114897;28;20046;-82
2022/12/06 04:04:50;;;;;;;47.85;13.10;;;;;;;3.85;100.00;101823.63;5133658;28;20072;-82
2022/12/06 04:07:19;;;;;;;63.38;14.00;;;;;;;3.97;100.00;101837.50;5114667;28;20042;-81
2022/12/06 04:09:51;;;;;;;49.60;12.93;;;;;;;3.84;100.00;101815.84;5115104;28;20027;-81
2022/12/06 04:15:01;;;;;;;58.17;16.10;;;;;;;3.94;100.00;101830.69;5136760;27;20037;-82
2022/12/06 04:44:03;;;;;;;53.65;13.85;;;;;;;3.80;100.00;101825.88;5131665;27;20114;-80
2022/12/06 04:49:51;;;;;;;49.10;12.27;;;;;;;3.89;100.00;101835.59;5133642;28;20542;-79
2022/12/06 04:55:38;;;;;;;50.58;13.43;;;;;;;3.85;100.00;101826.28;5133071;28;20099;-80
2022/12/06 04:58:03;;;;;;;58.63;14.27;;;;;;;3.90;100.00;101836.41;5135948;27;20039;-82
2022/12/06 05:00:28;;;;;;;55.85;15.10;;;;;;;3.90;100.00;101837.25;5133178;28;20027;-81
2022/12/06 05:02:54;;;;;;;42.63;12.45;;;;;;;3.88;100.00;101827.81;5114786;27;20056;-80
2022/12/06 05:05:19;;;;;;;45.80;13.45;;;;;;;3.87;100.00;101829.63;5117668;27;20031;-80
2022/12/06 05:07:44;;;;;;;55.03;13.15;;;;;;;3.89;100.00;101829.47;5132676;28;20031;-80
2022/12/06 05:10:09;;;;;;;45.92;12.35;;;;;;;3.89;100.00;101832.09;5113836;28;20043;-80
2022/12/06 05:12:35;;;;;;;58.10;13.55;;;;;;;3.79;100.00;101818.94;5132743;28;20035;-80
2022/12/06 05:18:23;;;;;;;35.63;11.43;;;;;;;3.90;100.00;101824.03;5132845;28;20512;-80
2022/12/06 05:24:10;;;;;;;36.33;11.77;;;;;;;3.78;100.00;101819.91;5130871;28;20051;-79
2022/12/06 05:26:35;;;;;;;37.75;10.70;;;;;;;3.83;100.00;101832.69;5132578;28;20031;-79
2022/12/06 05:29:00;;;;;;;37.30;12.85;;;;;;;3.80;100.00;101825.06;5135660;27;20038;-79
2022/12/06 05:31:26;;;;;;;45.13;11.88;;;;;;;3.79;100.00;101828.69;5132479;28;20035;-80
2022/12/06 05:33:52;;;;;;;54.53;14.75;;;;;;;3.78;100.00;101825.19;5132550;28;20027;-80
2022/12/06 05:36:23;;;;;;;46.00;12.18;;;;;;;3.78;100.00;101835.78;5135654;27;20046;-80
2022/12/06 05:42:10;;;;;;;47.72;12.68;;;;;;;3.74;100.00;101821.16;5130658;28;20045;-78
2022/12/06 05:44:35;;;;;;;39.50;10.63;;;;;;;3.70;100.00;101817.13;5113872;28;20023;-78
2022/12/06 05:50:22;;;;;;;35.63;10.75;;;;;;;3.71;100.00;101837.31;5132227;28;20078;-77
2022/12/06 05:56:11;;;;;;;41.97;10.85;;;;;;;3.75;100.00;101833.41;5135896;27;20066;-79
2022/12/06 06:01:58;;;;;;;40.97;11.50;;;;;;;3.67;100.00;101830.66;5135408;28;20133;-79
2022/12/06 06:07:45;;;;;;;42.03;11.65;;;;;;;3.62;100.00;101828.44;5135846;28;20088;-80
2022/12/06 06:13:32;;;;;;;38.63;11.65;;;;;;;3.64;100.00;101830.94;5133866;28;20086;-81
2022/12/06 06:19:22;;;;;;;45.00;13.10;;;;;;;3.63;100.00;101831.94;5136045;28;20176;-81
2022/12/06 06:25:08;;;;;;;36.15;10.05;;;;;;;3.56;100.00;101831.69;5136605;27;20126;-82
2022/12/06 06:30:56;;;;;;;36.67;10.77;;;;;;;3.57;100.00;101837.78;5132381;28;20042;-82
2022/12/06 06:36:42;;;;;;;34.72;11.13;;;;;;;3.46;100.00;101830.84;5137071;27;20418;-79
2022/12/06 06:39:08;;;;;;;37.80;11.57;;;;;;;3.35;100.00;101821.28;5138818;27;20043;-80
2022/12/06 06:41:33;;;;;;;39.33;9.90;;;;;;;3.35;100.00;101820.44;5135250;28;20035;-80
2022/12/06 06:43:59;;;;;;;36.25;10.93;;;;;;;3.29;100.00;101827.16;5115814;28;20096;-78
2022/12/06 06:49:46;;;;;;;31.40;9.13;;;;;;;3.10;100.00;101816.59;5133456;28;20091;-80
2022/12/06 06:55:35;;;;;;;35.40;10.20;;;;;;;3.03;100.00;101816.34;5135876;28;20042;-80
2022/12/06 07:01:23;;;;;;;25.35;9.05;;;;;;;2.93;100.00;101817.31;5135066;28;20500;-79
2022/12/06 07:07:11;;;;;;;37.80;10.13;;;;;;;2.73;100.00;101825.25;5135462;28;20096;-80
2022/12/06 07:12:58;;;;;;;28.30;9.30;;;;;;;2.58;100.00;101825.78;5134859;28;20407;-82
2022/12/06 07:18:46;;;;;;;38.05;10.15;;;;;;;2.67;100.00;101831.09;5133753;28;20084;-81
2022/12/06 07:24:33;;;;;;;29.80;10.02;;;;;;;2.73;100.00;101825.25;5136163;28;20054;-81
2022/12/06 07:30:20;;;;;;;35.13;10.65;;;;;;;2.76;100.00;101832.88;5133233;28;20126;-81
2022/12/06 07:36:08;;;;;;;35.88;11.15;;;;;;;2.78;100.00;101820.38;5135294;28;20064;-80
2022/12/06 07:38:33;;;;;;;36.05;10.57;;;;;;;2.83;100.00;101824.41;5135393;28;20034;-80
2022/12/06 07:44:59;;;;;;;36.03;13.23;;;;;;;2.79;100.00;101814.13;5115959;28;20051;-80
2022/12/06 07:46:32;;;;;;;45.58;11.57;;;;;;;2.90;100.00;101831.66;5139280;27;20041;-81
2022/12/06 07:48:57;;;;;;;34.72;10.68;;;;;;;2.91;100.00;101835.97;5135753;28;20019;-80
2022/12/06 07:51:23;;;;;;;35.05;10.88;;;;;;;2.90;100.00;101841.38;5137071;28;20038;-77
2022/12/06 07:57:10;;;;;;;37.15;11.55;;;;;;;2.95;100.00;101850.56;5132859;28;20091;-80
2022/12/06 07:59:35;;;;;;;36.60;11.52;;;;;;;2.98;100.00;101852.91;5115565;28;20094;-80
2022/12/06 08:02:00;;;;;;;41.35;10.68;;;;;;;2.94;100.00;101835.69;5116193;28;20031;-80
2022/12/06 08:04:25;;;;;;;36.90;11.77;;;;;;;2.96;100.00;101840.81;5137282;27;20136;-80
2022/12/06 08:06:51;;;;;;;36.83;10.32;;;;;;;3.11;100.00;101855.25;5115698;28;20023;-80
2022/12/06 08:09:16;;;;;;;36.90;10.07;;;;;;;3.01;100.00;101842.06;5115903;28;20027;-80
2022/12/06 08:11:42;;;;;;;37.22;10.48;;;;;;;3.11;100.00;101852.63;5138155;27;20042;-80
2022/12/06 08:14:08;;;;;;;37.20;10.57;;;;;;;3.13;100.00;101852.47;5115682;28;20038;-80
2022/12/06 08:16:34;;;;;;;34.40;10.70;;;;;;;3.18;100.00;101851.09;5136945;27;20047;-80
2022/12/06 08:18:59;;;;;;;30.17;11.32;;;;;;;3.21;100.00;101850.81;5134655;28;20049;-80
2022/12/06 08:21:25;;;;;;;31.95;9.80;;;;;;;3.25;100.00;101851.38;5135322;28;20038;-80
2022/12/06 08:23:52;;;;;;;32.03;11.88;;;;;;;3.21;100.00;101845.53;5137118;27;20039;-80
2022/12/06 08:26:18;;;;;;;34.15;11.52;;;;;;;3.30;100.00;101854.41;5136052;28;20087;-80
2022/12/06 08:28:44;;;;;;;36.67;10.18;;;;;;;3.27;100.00;101844.97;5117178;28;20031;-80
2022/12/06 08:31:15;;;;;;;43.42;11.35;;;;;;;3.30;100.00;101838.56;5135918;28;20519;-80
2022/12/06 08:33:41;;;;;;;33.80;10.30;;;;;;;3.32;100.00;101853.28;5136434;27;20426;-80
2022/12/06 08:36:12;;;;;;;35.08;10.65;;;;;;;3.19;100.00;101844.84;5117949;28;20028;-80
2022/12/06 08:38:39;;;;;;;24.15;9.05;;;;;;;3.10;100.00;101849.13;5117896;28;20116;-80
2022/12/06 08:41:53;;;;;;;30.13;9.45;;;;;;;3.02;100.00;101853.47;5115630;28;20039;-80
2022/12/06 08:43:51;;;;;;;27.58;9.30;;;;;;;2.92;100.00;101856.13;5135104;27;20137;-80
2022/12/06 08:46:16;;;;;;;30.23;10.00;;;;;;;2.77;100.00;101849.56;5138261;27;20507;-80
2022/12/06 08:52:03;;;;;;;28.50;10.13;;;;;;;2.78;100.00;101867.06;5133499;28;20046;-80
2022/12/06 08:54:28;;;;;;;31.20;9.52;;;;;;;2.98;100.00;101865.28;5114766;28;20391;-80
2022/12/06 08:56:54;;;;;;;96.05;16.33;;;;;;;3.55;100.00;101867.03;5134261;27;20034;-80
2022/12/06 08:59:20;;;;;;;38.85;11.80;;;;;;;4.40;100.00;101871.28;5136209;27;20027;-80
2022/12/06 09:01:45;;;;;;;46.13;13.63;;;;;;;5.45;100.00;101875.88;5135536;28;20037;-80
2022/12/06 09:04:11;;;;;;;47.00;13.32;;;;;;;6.01;100.00;101875.41;5137656;27;20460;-80
2022/12/06 09:06:39;;;;;;;45.65;13.45;;;;;;;6.20;100.00;101864.56;5116062;28;20072;-80
2022/12/06 09:09:05;;;;;;;43.40;14.20;;;;;;;6.13;100.00;101873.34;5113718;28;20047;-80
2022/12/06 09:11:30;;;;;;;49.45;14.30;;;;;;;6.52;100.00;101871.81;5132996;28;20365;-80
2022/12/06 09:13:55;;;;;;;44.80;13.55;;;;;;;6.64;100.00;101874.16;5114701;28;20027;-80
2022/12/06 09:16:23;;;;;;;36.17;12.32;;;;;;;6.10;100.00;101869.19;5135971;27;20050;-80
2022/12/06 09:22:09;;;;;;;38.15;12.27;;;;;;;5.22;100.00;101878.22;5132461;28;20034;-81
2022/12/06 09:24:34;;;;;;;37.05;13.18;;;;;;;5.34;100.00;101882.28;5114167;28;20023;-80
2022/12/06 09:27:00;;;;;;;38.10;13.77;;;;;;;5.97;100.00;101879.38;5138002;27;20538;-81
2022/12/06 09:29:25;;;;;;;36.47;13.85;;;;;;;7.04;100.00;101882.19;5117754;28;20099;-81
2022/12/06 09:31:52;;;;;;;25.95;11.55;;;;;;;7.65;100.00;101886.16;5136173;28;20536;-81
2022/12/06 09:34:18;;;;;;;22.92;11.23;;;;;;;8.10;100.00;101886.56;5128570;28;20047;-80
2022/12/06 09:36:56;;;;;;;25.77;10.88;;;;;;;8.17;100.00;101887.53;5117628;28;20076;-80
2022/12/06 09:39:31;;;;;;;20.40;8.82;;;;;;;8.15;100.00;101886.88;5139097;27;20479;-81
2022/12/06 09:42:26;;;;;;;18.60;7.65;;;;;;;8.06;100.00;101891.38;5136545;28;20026;-80
2022/12/06 09:44:57;;;;;;;23.75;8.45;;;;;;;8.20;100.00;101892.50;5139379;27;20043;-81
2022/12/06 09:51:23;;;;;;;20.77;7.43;;;;;;;9.10;100.00;101896.38;5137063;28;20037;-81
2022/12/06 09:54:02;;;;;;;13.70;6.93;;;;;;;8.40;100.00;101879.66;5118323;28;20027;-81
2022/12/06 09:56:43;;;;;;;14.80;6.78;;;;;;;7.53;100.00;101892.03;5117890;28;20122;-81
2022/12/06 09:59:23;;;;;;;12.95;7.60;;;;;;;7.05;100.00;101893.69;5118905;28;20420;-81
2022/12/06 10:01:51;;;;;;;17.23;7.95;;;;;;;7.59;100.00;101892.16;5139378;27;20030;-81
2022/12/06 10:07:51;;;;;;;17.55;7.55;;;;;;;8.70;100.00;101878.81;5133776;28;20043;-81
2022/12/06 10:10:25;;;;;;;19.60;6.88;;;;;;;9.23;100.00;101896.59;5118164;28;20035;-81
2022/12/06 10:13:11;;;;;;;19.40;6.88;;;;;;;9.15;100.00;101883.31;5117900;27;20032;-81
2022/12/06 10:16:05;;;;;;;13.68;6.70;;;;;;;8.71;100.00;101877.81;5117901;28;20136;-81
2022/12/06 10:19:04;;;;;;;14.13;7.28;;;;;;;9.15;100.00;101880.66;5117463;28;20034;-81
2022/12/06 10:21:48;;;;;;;16.95;6.15;;;;;;;8.87;100.00;101868.84;5086879;28;20495;-81
2022/12/06 10:24:33;;;;;;;14.20;7.63;;;;;;;9.03;100.00;101867.91;5117303;28;20027;-81
2022/12/06 10:27:11;;;;;;;12.60;6.95;;;;;;;9.49;100.00;101871.34;5127186;28;20506;-80
2022/12/06 10:29:46;;;;;;;14.05;5.95;;;;;;;9.77;100.00;101880.41;5135533;28;20110;-80
2022/12/06 10:32:31;;;;;;;12.82;5.88;;;;;;;9.86;100.00;101875.81;5138561;27;20499;-81
2022/12/06 10:35:12;;;;;;;12.18;6.18;;;;;;;9.38;100.00;101877.97;5135844;28;20479;-81
2022/12/06 10:38:09;;;;;;;16.88;7.22;;;;;;;8.50;100.00;101875.75;5138478;27;20075;-80
2022/12/06 10:40:56;;;;;;;13.70;6.60;;;;;;;7.81;100.00;101871.19;5111388;28;20491;-80
2022/12/06 10:43:59;;;;;;;14.65;7.00;;;;;;;7.34;100.00;101875.38;5116204;28;20043;-80
2022/12/06 10:50:02;;;;;;;17.80;7.15;;;;;;;8.20;100.00;101876.53;5136410;28;20046;-80
2022/12/06 10:52:34;;;;;;;11.60;5.28;;;;;;;9.47;100.00;101876.88;5117850;28;20483;-81
2022/12/06 10:55:09;;;;;;;12.43;5.53;;;;;;;9.59;100.00;101875.44;5138516;27;20039;-81
2022/12/06 10:57:56;;;;;;;12.20;5.40;;;;;;;9.68;100.00;101876.16;5136038;28;20031;-81
2022/12/06 11:00:24;;;;;;;17.55;6.90;;;;;;;8.95;100.00;101872.28;5138547;27;20539;-81
2022/12/06 11:02:59;;;;;;;10.63;5.68;;;;;;;8.11;100.00;101870.41;5116571;28;20475;-81
2022/12/06 11:05:33;;;;;;;18.13;7.47;;;;;;;7.42;100.00;101875.38;5116907;28;20023;-81
2022/12/06 11:11:27;;;;;;;20.38;7.70;;;;;;;7.58;100.00;101871.88;5136252;27;20122;-80
2022/12/06 11:13:59;;;;;;;16.13;6.15;;;;;;;7.52;100.00;101871.69;5119639;28;20584;-80
2022/12/06 11:16:31;;;;;;;12.48;5.80;;;;;;;7.11;100.00;101863.75;5135703;28;20023;-81
2022/12/06 11:19:13;;;;;;;13.85;6.22;;;;;;;7.15;100.00;101865.06;5115879;28;20137;-81
2022/12/06 11:21:47;;;;;;;13.77;6.05;;;;;;;7.93;100.00;101853.81;5134918;28;20027;-81
2022/12/06 11:24:21;;;;;;;16.88;6.28;;;;;;;8.57;100.00;101866.03;5138661;27;20127;-80
2022/12/06 11:26:51;;;;;;;18.90;6.80;;;;;;;8.38;100.00;101867.31;5117111;28;20109;-80
2022/12/06 11:29:17;;;;;;;13.55;5.93;;;;;;;8.00;100.00;101857.44;5137774;27;20103;-80
2022/12/06 11:31:51;;;;;;;13.90;6.00;;;;;;;7.93;100.00;101864.47;5117906;28;20031;-81
2022/12/06 11:34:21;;;;;;;12.43;5.95;;;;;;;8.28;100.00;101852.50;5116612;28;20027;-80
2022/12/06 11:36:49;;;;;;;13.80;6.68;;;;;;;8.95;100.00;101864.28;5115711;28;20398;-80
2022/12/06 11:39:15;;;;;;;12.45;6.10;;;;;;;9.26;100.00;101856.22;5135376;28;20063;-80
2022/12/06 11:41:44;;;;;;;10.77;6.18;;;;;;;9.82;100.00;101848.63;5138631;27;20078;-80
2022/12/06 11:44:14;;;;;;;13.52;5.05;;;;;;;9.89;100.00;101856.75;5116162;28;20030;-81
2022/12/06 11:46:40;;;;;;;10.40;4.80;;;;;;;8.93;100.00;101852.97;5135210;27;20027;-80
2022/12/06 11:52:43;;;;;;;10.93;5.25;;;;;;;8.29;100.00;101839.00;5134756;28;20096;-80
2022/12/06 11:55:18;;;;;;;10.30;5.03;;;;;;;8.10;100.00;101839.44;5133190;28;20490;-81
2022/12/06 11:57:47;;;;;;;10.68;4.38;;;;;;;8.06;100.00;101838.09;5116187;28;20118;-81
2022/12/06 12:00:18;;;;;;;10.90;5.05;;;;;;;8.24;100.00;101829.88;5116122;28;20368;-80
2022/12/06 12:06:07;;;;;;;8.55;4.03;;;;;;;9.28;100.00;101837.34;5135263;28;20091;-81
2022/12/06 12:08:32;;;;;;;14.65;5.00;;;;;;;9.81;100.00;101824.78;5134432;28;20019;-80
2022/12/06 12:11:00;;;;;;;10.98;4.53;;;;;;;9.94;100.00;101820.44;5137371;27;20054;-81
2022/12/06 12:13:46;;;;;;;12.80;5.03;;;;;;;9.51;100.00;101811.41;5133752;28;20386;-80
2022/12/06 12:16:19;;;;;;;12.38;4.25;;;;;;;9.12;100.00;101821.47;5114631;28;20076;-80
2022/12/06 12:18:52;;;;;;;12.95;5.03;;;;;;;9.04;100.00;101825.06;5115915;28;20028;-80
2022/12/06 12:21:30;;;;;;;9.73;4.90;;;;;;;10.22;100.00;101825.16;5133928;28;20031;-80
2022/12/06 12:23:57;;;;;;;11.27;5.20;;;;;;;10.94;100.00;101817.03;5136891;27;20039;-81
2022/12/06 12:26:23;;;;;;;10.70;4.60;;;;;;;11.31;97.85;101807.88;5133608;28;20451;-80
2022/12/06 12:29:03;;;;;;;9.13;4.88;;;;;;;11.23;100.00;101808.00;5137058;27;20046;-80
2022/12/06 12:31:29;;;;;;;13.43;5.85;;;;;;;10.81;98.67;101804.38;5115656;28;20114;-80
2022/12/06 12:34:21;;;;;;;11.10;4.82;;;;;;;10.54;100.00;101811.31;5114955;28;20491;-80
2022/12/06 12:36:49;;;;;;;11.30;4.47;;;;;;;10.01;100.00;101804.50;5116197;28;20090;-80
2022/12/06 12:42:38;;;;;;;10.90;5.05;;;;;;;8.95;100.00;101799.44;5133500;28;20029;-80
2022/12/06 12:45:05;;;;;;;10.18;4.93;;;;;;;8.72;100.00;101802.13;5115961;27;20392;-80
2022/12/06 12:47:31;;;;;;;10.25;4.72;;;;;;;8.17;100.00;101800.44;5136584;27;20042;-80
2022/12/06 12:50:19;;;;;;;13.95;4.97;;;;;;;7.90;100.00;101796.41;5115772;28;20084;-80
2022/12/06 12:52:45;;;;;;;11.75;4.57;;;;;;;8.03;100.00;101798.50;5136942;27;20039;-80
2022/12/06 12:55:22;;;;;;;13.18;5.68;;;;;;;8.16;100.00;101792.63;5133767;28;20392;-79
2022/12/06 12:57:57;;;;;;;11.60;4.43;;;;;;;8.10;100.00;101790.66;5137517;27;20043;-80
2022/12/06 13:00:27;;;;;;;7.78;4.18;;;;;;;8.13;100.00;101785.81;5115577;28;20034;-80
2022/12/06 13:02:59;;;;;;;12.68;4.63;;;;;;;8.36;100.00;101793.84;5138985;27;20058;-79
2022/12/06 13:08:47;;;;;;;12.07;4.45;;;;;;;8.49;100.00;101785.31;5140034;27;20049;-79
2022/12/06 13:11:12;;;;;;;7.72;4.03;;;;;;;8.35;100.00;101789.53;5137953;27;20043;-79
2022/12/06 13:13:46;;;;;;;9.60;4.00;;;;;;;8.25;100.00;101789.75;5137033;28;20101;-80
2022/12/06 13:16:18;;;;;;;12.48;4.45;;;;;;;8.00;100.00;101781.03;5140480;27;20126;-79
2022/12/06 13:18:46;;;;;;;8.10;3.28;;;;;;;7.98;100.00;101787.56;5137112;28;20563;-80
2022/12/06 13:21:24;;;;;;;9.82;3.50;;;;;;;8.09;100.00;101784.47;5139945;27;20483;-79
2022/12/06 13:23:54;;;;;;;10.00;3.70;;;;;;;8.00;100.00;101790.88;5136344;28;20044;-80
2022/12/06 13:26:32;;;;;;;11.23;3.90;;;;;;;7.74;100.00;101781.31;5138512;27;20035;-79
2022/12/06 13:29:10;;;;;;;7.25;3.45;;;;;;;7.58;100.00;101772.56;5136504;28;20033;-80
2022/12/06 13:31:38;;;;;;;7.75;3.35;;;;;;;7.48;100.00;101780.72;5136399;28;20047;-79
2022/12/06 13:34:22;;;;;;;5.18;2.50;;;;;;;7.35;100.00;101769.81;5139150;27;20035;-80
2022/12/06 13:36:50;;;;;;;9.15;2.30;;;;;;;7.23;100.00;101771.13;5117605;28;20122;-80
2022/12/06 13:39:31;;;;;;;5.03;2.47;;;;;;;7.22;100.00;101775.63;5139199;27;20051;-79
2022/12/06 13:42:17;;;;;;;6.65;2.72;;;;;;;7.17;100.00;101761.19;5117676;28;20035;-80
2022/12/06 13:44:48;;;;;;;40.42;34.00;;;;;;;7.14;100.00;101763.19;5116956;28;20039;-79
2022/12/06 13:50:35;;;;;;;11.35;5.75;;;;;;;7.02;100.00;101766.38;5133888;28;20074;-80
2022/12/06 13:53:01;;;;;;;23.60;17.67;;;;;;;6.94;100.00;101763.69;5118329;28;20055;-79
2022/12/06 13:55:27;;;;;;;20.50;16.48;;;;;;;6.81;100.00;101757.06;5137134;27;20471;-79
2022/12/06 13:57:58;;;;;;;10.02;3.80;;;;;;;6.77;100.00;101754.91;5138124;27;20031;-79
2022/12/06 14:00:29;;;;;;;8.70;4.50;;;;;;;6.73;100.00;101759.75;5136758;28;20498;-79
2022/12/06 14:03:01;;;;;;;12.48;4.80;;;;;;;6.77;100.00;101762.88;5138906;27;20538;-79
2022/12/06 14:05:57;;;;;;;16.55;9.50;;;;;;;6.76;100.00;101759.41;5117104;28;20390;-79
2022/12/06 14:08:31;;;;;;;22.48;19.15;;;;;;;6.64;100.00;101757.22;5116655;28;20043;-79
2022/12/06 14:11:13;;;;;;;18.20;12.13;;;;;;;6.65;100.00;101753.56;5135467;28;20031;-78
2022/12/06 14:13:45;;;;;;;16.67;12.15;;;;;;;6.58;100.00;101752.56;5138378;27;20050;-78
2022/12/06 14:16:38;;;;;;;12.77;6.57;;;;;;;6.50;100.00;101738.31;5117615;28;20031;-79
2022/12/06 14:19:20;;;;;;;21.00;12.00;;;;;;;6.53;100.00;101761.03;5093485;27;20051;-78
2022/12/06 14:21:58;;;;;;;9.88;6.90;;;;;;;6.49;100.00;101755.25;5117445;28;20568;-79
2022/12/06 14:24:41;;;;;;;11.60;5.07;;;;;;;6.42;100.00;101753.41;5135414;28;20042;-78
2022/12/06 14:27:12;;;;;;;10.93;4.78;;;;;;;6.41;100.00;101759.72;5111939;28;20125;-79
2022/12/06 14:29:38;;;;;;;10.57;4.10;;;;;;;6.41;100.00;101752.56;5135103;28;20039;-79
2022/12/06 14:35:35;;;;;;;8.95;4.13;;;;;;;6.37;100.00;101745.09;5135765;27;20046;-77
2022/12/06 14:38:21;;;;;;;11.35;3.78;;;;;;;6.32;100.00;101745.56;5138853;27;20051;-79
2022/12/06 14:44:16;;;;;;;7.10;3.50;;;;;;;6.27;100.00;101742.59;5135303;27;20041;-79
2022/12/06 14:52:35;;;;;;;13.82;4.50;;;;;;;6.15;100.00;101728.78;5134685;28;20385;-78
2022/12/06 14:55:18;;;;;;;9.30;4.00;;;;;;;6.18;100.00;101727.63;5115741;28;20051;-78
2022/12/06 14:57:46;;;;;;;7.82;4.07;;;;;;;6.11;100.00;101734.59;5135036;28;20039;-77
2022/12/06 15:00:14;;;;;;;10.45;5.85;;;;;;;6.09;100.00;101731.28;5119521;27;20066;-78
2022/12/06 15:02:39;;;;;;;14.50;4.57;;;;;;;6.03;100.00;101729.25;5135833;27;20043;-78
2022/12/06 15:05:44;;;;;;;8.90;4.10;;;;;;;6.09;100.00;101728.63;5116050;28;20035;-78
2022/12/06 15:08:26;;;;;;;11.43;4.30;;;;;;;6.02;100.00;101725.75;5124994;28;20039;-78